Time;durP1;ratioP1;P1;durP2;ratioP2;P2;SDS_P1;SDS_P2;PMS_P1;PMS_P2;Temp;Humidity;BMP_temperature;BMP_pressure;BME280_temperature;BME280_humidity;BME280_pressure;Samples;Min_cycle;Max_cycle;Signal;HPM_P1;HPM_P2
2023/01/30 00:00:25;;;;;;;14.43;4.15;;;;;;;;;;5029209;28;20033;-74
2023/01/30 00:02:50;;;;;;;9.77;3.63;;;;;;;;;;5031877;28;20045;-75
2023/01/30 00:05:15;;;;;;;9.70;3.60;;;;;;;;;;5016881;28;20030;-74
2023/01/30 00:07:41;;;;;;;13.90;3.80;;;;;;;;;;5015973;28;20397;-74
2023/01/30 00:10:07;;;;;;;13.90;3.90;;;;;;;;;;5027183;28;20036;-75
2023/01/30 00:12:32;;;;;;;8.10;3.33;;;;;;;;;;5015887;28;20371;-74
2023/01/30 00:14:58;;;;;;;8.35;3.20;;;;;;;;;;5025627;28;20052;-73
2023/01/30 00:17:23;;;;;;;11.80;3.30;;;;;;;;;;5018218;28;20029;-74
2023/01/30 00:19:48;;;;;;;5.45;2.65;;;;;;;;;;5027515;28;20041;-73
2023/01/30 00:22:14;;;;;;;6.55;3.05;;;;;;;;;;5019501;28;20532;-73
2023/01/30 00:24:39;;;;;;;11.40;2.85;;;;;;;;;;5029330;28;20068;-74
2023/01/30 00:27:04;;;;;;;7.45;3.33;;;;;;;;;;5026108;28;20038;-74
2023/01/30 00:29:30;;;;;;;8.75;2.67;;;;;;;;;;5019401;28;20143;-74
2023/01/30 00:31:55;;;;;;;9.05;2.75;;;;;;;;;;5025287;28;20041;-74
2023/01/30 00:34:20;;;;;;;7.50;2.55;;;;;;;;;;5018417;28;20030;-73
2023/01/30 00:36:46;;;;;;;7.80;2.45;;;;;;;;;;5021596;28;20482;-76
2023/01/30 00:39:11;;;;;;;6.90;2.85;;;;;;;;;;5019762;28;20030;-74
2023/01/30 00:47:04;;;;;;;6.38;2.45;;;;;;;;;;5019213;28;20084;-73
2023/01/30 00:49:30;;;;;;;6.75;2.10;;;;;;;;;;5018752;28;20069;-73
2023/01/30 00:51:55;;;;;;;4.82;2.05;;;;;;;;;;5023026;28;20099;-73
2023/01/30 00:54:20;;;;;;;5.63;2.05;;;;;;;;;;5018388;28;20492;-74
2023/01/30 00:56:46;;;;;;;6.45;1.67;;;;;;;;;;5017513;28;20053;-73
2023/01/30 00:59:11;;;;;;;4.78;2.33;;;;;;;;;;5021074;28;20026;-77
2023/01/30 01:01:37;;;;;;;9.10;2.58;;;;;;;;;;5026492;28;20480;-73
2023/01/30 01:04:02;;;;;;;3.13;1.45;;;;;;;;;;5028754;28;20045;-74
2023/01/30 01:06:27;;;;;;;4.85;1.73;;;;;;;;;;5016468;28;20038;-73
2023/01/30 01:08:53;;;;;;;5.15;1.83;;;;;;;;;;5019456;28;20057;-73
2023/01/30 01:11:24;;;;;;;5.75;1.67;;;;;;;;;;5019563;28;20532;-73
2023/01/30 01:13:52;;;;;;;4.80;1.40;;;;;;;;;;5019256;28;20030;-74
2023/01/30 01:16:18;;;;;;;2.22;1.15;;;;;;;;;;5018039;28;20045;-73
2023/01/30 01:18:43;;;;;;;2.50;1.40;;;;;;;;;;5026251;28;20068;-73
2023/01/30 01:21:08;;;;;;;3.33;1.40;;;;;;;;;;5025588;28;20033;-74
2023/01/30 01:23:34;;;;;;;3.30;1.33;;;;;;;;;;5019272;28;20037;-73
2023/01/30 01:26:02;;;;;;;4.07;1.33;;;;;;;;;;5015002;28;20045;-73
2023/01/30 01:28:28;;;;;;;3.95;1.50;;;;;;;;;;5027096;28;20057;-74
2023/01/30 01:30:53;;;;;;;5.53;1.10;;;;;;;;;;5016047;28;20474;-75
2023/01/30 01:33:19;;;;;;;2.63;1.10;;;;;;;;;;5016953;28;20112;-73
2023/01/30 01:35:46;;;;;;;4.32;1.10;;;;;;;;;;5022625;28;20112;-75
2023/01/30 01:38:12;;;;;;;8.00;1.30;;;;;;;;;;5016395;28;20038;-74
2023/01/30 01:43:23;;;;;;;2.28;1.10;;;;;;;;;;5017941;28;20036;-73
2023/01/30 01:45:52;;;;;;;4.10;1.10;;;;;;;;;;5019264;28;20107;-75
2023/01/30 01:48:24;;;;;;;3.88;1.05;;;;;;;;;;5014572;28;20074;-73
2023/01/30 01:50:56;;;;;;;3.42;0.88;;;;;;;;;;5029338;28;20106;-74
2023/01/30 01:53:25;;;;;;;4.50;0.98;;;;;;;;;;5024556;28;20042;-74
2023/01/30 01:55:52;;;;;;;4.13;1.10;;;;;;;;;;5020798;28;20041;-74
2023/01/30 01:58:49;;;;;;;5.70;1.50;;;;;;;;;;5029439;28;20025;-74
2023/01/30 02:01:14;;;;;;;2.95;1.35;;;;;;;;;;5034475;28;20037;-74
2023/01/30 02:03:44;;;;;;;3.80;1.20;;;;;;;;;;5025186;28;20484;-73
2023/01/30 02:06:11;;;;;;;3.13;0.82;;;;;;;;;;5020653;28;20402;-74
2023/01/30 02:08:43;;;;;;;3.35;1.42;;;;;;;;;;5024736;28;20053;-74
2023/01/30 02:11:34;;;;;;;2.78;1.08;;;;;;;;;;5026101;28;20045;-74
2023/01/30 02:13:59;;;;;;;4.32;1.15;;;;;;;;;;5020150;28;20473;-73
2023/01/30 02:16:24;;;;;;;5.88;1.00;;;;;;;;;;5022485;28;20052;-74
2023/01/30 02:18:50;;;;;;;3.30;1.00;;;;;;;;;;5014861;28;20458;-74
2023/01/30 02:21:50;;;;;;;4.53;1.02;;;;;;;;;;5019805;28;20045;-73
2023/01/30 02:24:28;;;;;;;3.83;1.50;;;;;;;;;;5019757;28;20037;-73
2023/01/30 02:27:12;;;;;;;5.13;1.88;;;;;;;;;;5031016;28;20075;-73
2023/01/30 02:30:05;;;;;;;4.80;1.50;;;;;;;;;;5021298;28;20588;-73
2023/01/30 02:32:36;;;;;;;4.13;1.50;;;;;;;;;;5019607;28;20112;-73
2023/01/30 02:35:28;;;;;;;4.75;1.25;;;;;;;;;;5015573;28;20045;-75
2023/01/30 02:38:12;;;;;;;5.30;1.38;;;;;;;;;;4974921;28;20057;-74
2023/01/30 02:40:44;;;;;;;4.78;1.55;;;;;;;;;;5026438;28;20046;-73
2023/01/30 02:43:38;;;;;;;5.40;1.27;;;;;;;;;;5025301;28;20470;-73
2023/01/30 02:46:15;;;;;;;5.00;1.50;;;;;;;;;;5019751;28;20052;-73
2023/01/30 02:49:13;;;;;;;2.30;1.02;;;;;;;;;;5012911;28;20041;-73
2023/01/30 02:51:40;;;;;;;4.65;1.38;;;;;;;;;;4977939;28;20101;-73
2023/01/30 02:54:06;;;;;;;3.05;1.30;;;;;;;;;;5001443;28;20367;-73
2023/01/30 02:56:53;;;;;;;5.10;1.45;;;;;;;;;;5022852;28;20041;-73
2023/01/30 02:59:32;;;;;;;6.63;1.65;;;;;;;;;;5015148;28;20045;-73
2023/01/30 03:02:10;;;;;;;5.60;1.58;;;;;;;;;;5030668;28;20041;-73
2023/01/30 03:04:45;;;;;;;3.40;1.45;;;;;;;;;;5024747;28;20477;-73
2023/01/30 03:07:44;;;;;;;3.35;1.20;;;;;;;;;;5022798;28;20048;-73
2023/01/30 03:10:36;;;;;;;6.13;1.40;;;;;;;;;;5030927;28;20037;-73
2023/01/30 03:13:13;;;;;;;3.13;1.15;;;;;;;;;;5009476;28;20121;-73
2023/01/30 03:15:48;;;;;;;5.25;1.48;;;;;;;;;;5017699;28;20042;-72
2023/01/30 03:18:16;;;;;;;6.43;1.65;;;;;;;;;;5021820;28;20041;-73
2023/01/30 03:20:41;;;;;;;3.70;1.02;;;;;;;;;;5016257;28;20140;-73
2023/01/30 03:23:07;;;;;;;5.68;1.52;;;;;;;;;;5028943;28;20553;-73
2023/01/30 03:25:33;;;;;;;5.47;1.40;;;;;;;;;;5030827;28;20038;-73
2023/01/30 03:27:59;;;;;;;4.85;1.20;;;;;;;;;;5024378;28;20128;-74
2023/01/30 03:30:25;;;;;;;8.80;1.58;;;;;;;;;;5010486;28;20519;-73
2023/01/30 03:32:50;;;;;;;6.38;1.35;;;;;;;;;;5032138;28;20037;-73
2023/01/30 03:35:16;;;;;;;14.48;1.35;;;;;;;;;;5027647;28;20030;-73
2023/01/30 03:37:43;;;;;;;9.98;2.08;;;;;;;;;;5019076;28;20034;-73
2023/01/30 03:40:09;;;;;;;7.28;1.20;;;;;;;;;;5017387;28;20465;-73
2023/01/30 03:42:35;;;;;;;6.28;1.10;;;;;;;;;;5019012;28;20437;-73
2023/01/30 03:45:00;;;;;;;2.42;1.33;;;;;;;;;;5019275;28;20045;-72
2023/01/30 03:47:26;;;;;;;7.65;1.33;;;;;;;;;;5020602;28;20116;-74
2023/01/30 03:49:51;;;;;;;12.15;1.38;;;;;;;;;;5016057;28;20037;-73
2023/01/30 03:52:16;;;;;;;5.80;1.13;;;;;;;;;;5022361;28;20063;-73
2023/01/30 03:54:42;;;;;;;15.45;1.70;;;;;;;;;;5026764;28;20175;-73
2023/01/30 03:57:07;;;;;;;8.57;1.60;;;;;;;;;;5030434;28;20033;-73
2023/01/30 03:59:32;;;;;;;8.18;1.20;;;;;;;;;;5033594;28;20051;-73
2023/01/30 04:01:58;;;;;;;7.53;1.30;;;;;;;;;;5028724;28;20041;-73
2023/01/30 04:04:23;;;;;;;12.05;1.42;;;;;;;;;;5033093;28;20037;-74
2023/01/30 04:06:48;;;;;;;9.07;1.60;;;;;;;;;;5024005;28;20111;-73
2023/01/30 04:09:14;;;;;;;14.48;1.67;;;;;;;;;;5020256;28;20069;-73
2023/01/30 04:11:39;;;;;;;16.75;2.28;;;;;;;;;;5018473;28;20444;-72
2023/01/30 04:14:05;;;;;;;18.83;2.65;;;;;;;;;;5016900;28;20105;-73
2023/01/30 04:16:30;;;;;;;11.35;1.65;;;;;;;;;;5023969;28;20037;-73
2023/01/30 04:18:55;;;;;;;9.98;1.30;;;;;;;;;;5019327;28;20410;-73
2023/01/30 04:21:21;;;;;;;11.98;1.65;;;;;;;;;;5026002;28;20033;-73
2023/01/30 04:23:46;;;;;;;12.80;1.92;;;;;;;;;;5024464;28;20390;-73
2023/01/30 04:26:12;;;;;;;12.63;1.55;;;;;;;;;;5032728;28;20041;-72
2023/01/30 04:28:38;;;;;;;12.13;1.70;;;;;;;;;;5020061;28;20072;-72
2023/01/30 04:31:04;;;;;;;15.32;2.00;;;;;;;;;;5027830;28;20458;-73
2023/01/30 04:33:34;;;;;;;16.08;2.10;;;;;;;;;;5035634;28;20493;-73
2023/01/30 04:36:00;;;;;;;13.88;1.52;;;;;;;;;;5013339;28;20040;-73
2023/01/30 04:38:26;;;;;;;15.40;1.77;;;;;;;;;;5019101;28;20029;-73
2023/01/30 04:40:53;;;;;;;17.13;2.13;;;;;;;;;;5022748;28;20037;-72
2023/01/30 04:43:20;;;;;;;11.02;1.35;;;;;;;;;;5046318;28;20046;-73
2023/01/30 04:45:47;;;;;;;14.13;1.30;;;;;;;;;;5031815;28;20030;-72
2023/01/30 04:48:12;;;;;;;10.82;2.10;;;;;;;;;;5019212;28;20064;-73
2023/01/30 04:50:39;;;;;;;16.33;1.98;;;;;;;;;;5015040;28;20046;-72
2023/01/30 04:53:04;;;;;;;21.25;2.60;;;;;;;;;;5017397;28;20125;-73
2023/01/30 04:55:30;;;;;;;11.93;2.15;;;;;;;;;;5022812;28;20175;-73
2023/01/30 04:57:55;;;;;;;10.98;2.28;;;;;;;;;;5027207;28;20041;-75
2023/01/30 05:00:21;;;;;;;14.98;2.08;;;;;;;;;;5027495;28;20548;-73
2023/01/30 05:02:46;;;;;;;12.00;2.28;;;;;;;;;;5024080;28;20041;-72
2023/01/30 05:05:12;;;;;;;18.58;2.38;;;;;;;;;;5021943;28;20466;-72
2023/01/30 05:07:37;;;;;;;9.98;1.70;;;;;;;;;;5026812;28;20120;-73
2023/01/30 05:10:03;;;;;;;15.07;2.65;;;;;;;;;;5028136;28;20068;-73
2023/01/30 05:12:29;;;;;;;12.70;1.63;;;;;;;;;;5020388;28;20037;-74
2023/01/30 05:14:55;;;;;;;9.20;1.58;;;;;;;;;;5026578;28;20030;-72
2023/01/30 05:17:20;;;;;;;16.98;2.00;;;;;;;;;;5023706;28;20045;-74
2023/01/30 05:19:45;;;;;;;17.33;2.03;;;;;;;;;;5021082;28;20042;-72
2023/01/30 05:22:11;;;;;;;8.00;2.00;;;;;;;;;;5027907;28;20043;-74
2023/01/30 05:24:36;;;;;;;11.10;2.00;;;;;;;;;;5015562;28;20045;-73
2023/01/30 05:27:02;;;;;;;22.73;1.95;;;;;;;;;;5026803;28;20097;-73
2023/01/30 05:29:27;;;;;;;6.68;1.33;;;;;;;;;;5026961;28;20037;-73
2023/01/30 05:31:52;;;;;;;9.02;1.77;;;;;;;;;;5027362;28;20045;-73
2023/01/30 05:34:18;;;;;;;18.90;1.77;;;;;;;;;;5015953;28;20077;-73
2023/01/30 05:36:43;;;;;;;12.80;1.80;;;;;;;;;;5019521;28;20036;-73
2023/01/30 05:39:09;;;;;;;11.55;1.50;;;;;;;;;;5022268;28;20053;-73
2023/01/30 05:41:34;;;;;;;9.80;2.35;;;;;;;;;;5025792;28;20500;-73
2023/01/30 05:44:00;;;;;;;12.90;2.30;;;;;;;;;;5020237;28;20040;-73
2023/01/30 05:46:25;;;;;;;5.72;1.48;;;;;;;;;;5028105;28;20390;-73
2023/01/30 05:48:51;;;;;;;9.88;1.35;;;;;;;;;;5015536;28;20042;-73
2023/01/30 05:51:18;;;;;;;11.55;1.95;;;;;;;;;;5022932;28;20050;-73
2023/01/30 05:53:43;;;;;;;4.95;1.48;;;;;;;;;;5023058;28;20042;-73
2023/01/30 05:56:09;;;;;;;12.75;2.03;;;;;;;;;;5009785;28;20104;-73
2023/01/30 05:58:34;;;;;;;10.20;1.75;;;;;;;;;;5024365;28;20045;-73
2023/01/30 06:01:09;;;;;;;17.75;2.58;;;;;;;;;;5023699;28;20042;-73
2023/01/30 06:03:34;;;;;;;8.52;1.67;;;;;;;;;;5024876;28;20069;-73
2023/01/30 06:06:01;;;;;;;5.00;1.30;;;;;;;;;;5022566;28;20064;-73
2023/01/30 06:08:27;;;;;;;13.00;1.80;;;;;;;;;;5028205;28;20496;-73
2023/01/30 06:10:52;;;;;;;10.82;1.80;;;;;;;;;;5031742;28;20029;-72
2023/01/30 06:13:17;;;;;;;7.53;1.52;;;;;;;;;;5017329;28;20052;-73
2023/01/30 06:15:43;;;;;;;8.43;1.30;;;;;;;;;;5018113;28;20042;-73
2023/01/30 06:18:08;;;;;;;13.43;1.77;;;;;;;;;;5023985;28;20083;-73
2023/01/30 06:20:34;;;;;;;18.10;1.98;;;;;;;;;;5023769;28;20041;-73
2023/01/30 06:22:59;;;;;;;10.63;1.80;;;;;;;;;;5026952;28;20045;-73
2023/01/30 06:25:24;;;;;;;8.00;1.30;;;;;;;;;;5024628;28;20033;-73
2023/01/30 06:27:50;;;;;;;5.90;1.65;;;;;;;;;;5026186;28;20116;-73
2023/01/30 06:30:15;;;;;;;14.05;1.63;;;;;;;;;;5026490;28;20038;-73
2023/01/30 06:32:41;;;;;;;11.77;1.60;;;;;;;;;;5026370;28;20037;-73
2023/01/30 06:35:07;;;;;;;7.85;1.10;;;;;;;;;;5015673;28;20037;-73
2023/01/30 06:37:32;;;;;;;8.90;1.17;;;;;;;;;;5032338;28;20041;-73
2023/01/30 06:39:58;;;;;;;8.63;2.05;;;;;;;;;;5032316;28;20106;-73
2023/01/30 06:42:23;;;;;;;11.23;1.67;;;;;;;;;;5035587;28;20044;-73
2023/01/30 06:44:49;;;;;;;12.80;2.33;;;;;;;;;;5021999;28;20084;-72
2023/01/30 06:47:14;;;;;;;11.30;1.60;;;;;;;;;;5019599;28;20038;-72
2023/01/30 06:49:39;;;;;;;10.10;1.75;;;;;;;;;;5022028;28;20087;-73
2023/01/30 06:52:05;;;;;;;13.27;1.38;;;;;;;;;;5017020;28;20073;-73
2023/01/30 06:54:30;;;;;;;14.10;1.75;;;;;;;;;;5018171;28;20045;-73
2023/01/30 06:56:56;;;;;;;9.35;1.42;;;;;;;;;;5022356;28;20029;-72
2023/01/30 06:59:22;;;;;;;9.48;1.40;;;;;;;;;;5031004;28;20034;-75
2023/01/30 07:01:47;;;;;;;8.50;1.58;;;;;;;;;;5010622;28;20497;-72
2023/01/30 07:04:12;;;;;;;12.88;2.20;;;;;;;;;;5021577;28;20042;-73
2023/01/30 07:06:38;;;;;;;16.60;4.07;;;;;;;;;;5023629;28;20042;-72
2023/01/30 07:09:03;;;;;;;7.13;1.73;;;;;;;;;;5022181;28;20124;-73
2023/01/30 07:11:30;;;;;;;11.07;1.92;;;;;;;;;;5024409;28;20045;-73
2023/01/30 07:13:55;;;;;;;10.73;2.05;;;;;;;;;;5031576;28;20083;-72
2023/01/30 07:16:27;;;;;;;13.20;1.73;;;;;;;;;;5022774;28;20034;-73
2023/01/30 07:18:52;;;;;;;11.85;1.90;;;;;;;;;;5022051;28;20029;-73
2023/01/30 07:21:18;;;;;;;13.50;2.10;;;;;;;;;;5027413;28;20192;-73
2023/01/30 07:23:45;;;;;;;10.65;1.65;;;;;;;;;;5025581;28;20034;-72
2023/01/30 07:26:11;;;;;;;12.07;1.55;;;;;;;;;;5022746;28;20504;-73
2023/01/30 07:28:36;;;;;;;6.70;1.45;;;;;;;;;;5027848;28;20065;-74
2023/01/30 07:31:02;;;;;;;7.40;1.55;;;;;;;;;;5019488;28;20034;-73
2023/01/30 07:33:27;;;;;;;9.10;2.13;;;;;;;;;;5019158;28;20045;-72
2023/01/30 07:35:54;;;;;;;11.55;2.55;;;;;;;;;;5016529;28;20038;-72
2023/01/30 07:38:19;;;;;;;14.57;2.30;;;;;;;;;;5020863;28;20037;-73
2023/01/30 07:40:44;;;;;;;9.80;1.80;;;;;;;;;;5015184;28;20022;-73
2023/01/30 07:43:13;;;;;;;10.27;1.90;;;;;;;;;;5031303;28;20386;-73
2023/01/30 07:45:41;;;;;;;13.88;2.00;;;;;;;;;;5016095;28;20057;-73
2023/01/30 07:48:08;;;;;;;14.48;1.77;;;;;;;;;;5022875;28;20042;-73
2023/01/30 07:50:34;;;;;;;12.05;1.92;;;;;;;;;;5027124;28;20037;-73
2023/01/30 07:53:03;;;;;;;9.80;2.35;;;;;;;;;;5025906;28;20064;-73
2023/01/30 07:55:29;;;;;;;13.07;3.50;;;;;;;;;;5025182;28;20038;-73
2023/01/30 07:57:56;;;;;;;12.45;3.20;;;;;;;;;;5033841;28;20049;-73
2023/01/30 08:00:21;;;;;;;8.48;3.00;;;;;;;;;;5028705;28;20056;-73
2023/01/30 08:02:46;;;;;;;17.67;2.28;;;;;;;;;;5025311;28;20477;-73
2023/01/30 08:05:12;;;;;;;8.40;2.10;;;;;;;;;;5018300;28;20069;-73
2023/01/30 08:07:37;;;;;;;16.05;3.00;;;;;;;;;;5012886;28;20046;-73
2023/01/30 08:10:03;;;;;;;11.38;1.77;;;;;;;;;;5015266;28;20025;-73
2023/01/30 08:12:29;;;;;;;11.50;2.35;;;;;;;;;;5013375;28;20038;-73
2023/01/30 08:14:54;;;;;;;9.10;2.10;;;;;;;;;;5015620;28;20049;-73
2023/01/30 08:17:20;;;;;;;12.80;2.25;;;;;;;;;;5016616;28;20470;-72
2023/01/30 08:19:45;;;;;;;13.63;2.53;;;;;;;;;;5018731;28;20037;-72
2023/01/30 08:22:11;;;;;;;10.43;2.00;;;;;;;;;;5029216;28;20092;-73
2023/01/30 08:24:36;;;;;;;8.82;1.85;;;;;;;;;;5020403;28;20469;-73
2023/01/30 08:27:02;;;;;;;8.88;1.95;;;;;;;;;;5017777;28;20521;-73
2023/01/30 08:29:27;;;;;;;10.35;1.95;;;;;;;;;;5028138;28;20049;-72
2023/01/30 08:31:57;;;;;;;15.65;2.55;;;;;;;;;;5024730;28;20060;-72
2023/01/30 08:34:23;;;;;;;8.70;1.77;;;;;;;;;;5026936;28;20490;-74
2023/01/30 08:36:48;;;;;;;13.75;2.60;;;;;;;;;;5016478;28;20049;-73
2023/01/30 08:39:13;;;;;;;15.48;2.28;;;;;;;;;;5022210;28;20065;-73
2023/01/30 08:41:41;;;;;;;10.48;2.17;;;;;;;;;;5020370;28;20503;-74
2023/01/30 08:44:10;;;;;;;9.80;1.40;;;;;;;;;;5016231;28;20040;-73
2023/01/30 08:46:36;;;;;;;17.85;1.83;;;;;;;;;;5015153;28;20022;-73
2023/01/30 08:49:02;;;;;;;7.78;1.58;;;;;;;;;;5023804;28;20477;-73
2023/01/30 08:51:28;;;;;;;9.73;2.13;;;;;;;;;;5026713;28;20049;-73
2023/01/30 08:53:53;;;;;;;7.85;1.80;;;;;;;;;;5020944;28;20033;-73
2023/01/30 08:56:19;;;;;;;10.90;1.83;;;;;;;;;;5030178;28;20051;-74
2023/01/30 08:58:45;;;;;;;17.17;2.58;;;;;;;;;;5031510;28;20037;-73
2023/01/30 09:01:11;;;;;;;12.05;2.20;;;;;;;;;;5010840;28;20026;-75
2023/01/30 09:03:36;;;;;;;12.10;2.10;;;;;;;;;;5022258;28;20044;-74
2023/01/30 09:06:02;;;;;;;10.85;2.08;;;;;;;;;;5022675;28;20585;-74
2023/01/30 09:08:27;;;;;;;11.27;2.05;;;;;;;;;;5029817;28;20385;-74
2023/01/30 09:10:58;;;;;;;8.02;1.40;;;;;;;;;;5013691;28;20501;-74
2023/01/30 09:13:24;;;;;;;11.02;2.30;;;;;;;;;;5040745;28;20038;-74
2023/01/30 09:15:49;;;;;;;6.82;1.92;;;;;;;;;;5021720;28;20034;-74
2023/01/30 09:18:14;;;;;;;8.77;1.88;;;;;;;;;;5023091;28;20054;-74
2023/01/30 09:20:40;;;;;;;7.53;1.58;;;;;;;;;;5017567;28;20046;-74
2023/01/30 09:23:05;;;;;;;8.15;2.00;;;;;;;;;;5028669;28;20052;-76
2023/01/30 09:25:31;;;;;;;7.75;1.70;;;;;;;;;;5030428;28;20132;-74
2023/01/30 09:27:56;;;;;;;8.27;1.92;;;;;;;;;;5015603;28;20041;-74
2023/01/30 09:30:21;;;;;;;8.82;2.00;;;;;;;;;;4996185;28;20038;-74
2023/01/30 09:32:47;;;;;;;9.75;1.50;;;;;;;;;;5022301;28;20034;-74
2023/01/30 09:35:12;;;;;;;11.32;2.33;;;;;;;;;;5016926;28;20030;-74
2023/01/30 09:37:46;;;;;;;7.03;1.73;;;;;;;;;;5023108;28;20449;-74
2023/01/30 09:40:14;;;;;;;11.07;2.15;;;;;;;;;;5035423;28;20492;-74
2023/01/30 09:43:32;;;;;;;11.05;2.17;;;;;;;;;;5018954;28;20038;-78
2023/01/30 09:46:26;;;;;;;9.23;1.50;;;;;;;;;;5005006;28;20077;-78
2023/01/30 09:49:01;;;;;;;11.48;1.80;;;;;;;;;;5012590;28;20083;-74
2023/01/30 09:51:32;;;;;;;8.57;1.52;;;;;;;;;;5023148;28;20045;-74
2023/01/30 09:54:07;;;;;;;8.90;1.90;;;;;;;;;;5011492;28;20393;-74
2023/01/30 09:56:32;;;;;;;8.98;1.90;;;;;;;;;;5011940;28;20185;-74
2023/01/30 09:59:00;;;;;;;10.50;1.67;;;;;;;;;;5012393;28;20121;-74
2023/01/30 10:01:45;;;;;;;9.80;1.77;;;;;;;;;;5017424;28;20541;-74
2023/01/30 10:04:19;;;;;;;10.98;1.80;;;;;;;;;;5017732;28;20041;-74
2023/01/30 10:06:56;;;;;;;9.60;1.95;;;;;;;;;;5021210;28;20128;-73
2023/01/30 10:09:44;;;;;;;11.18;1.90;;;;;;;;;;5008745;28;20038;-74
2023/01/30 10:12:19;;;;;;;12.88;1.80;;;;;;;;;;5019551;28;20034;-74
2023/01/30 10:14:53;;;;;;;10.30;2.47;;;;;;;;;;5018463;28;20096;-74
2023/01/30 10:17:37;;;;;;;10.38;1.70;;;;;;;;;;5012292;28;20048;-74
2023/01/30 10:20:22;;;;;;;9.38;1.58;;;;;;;;;;5013776;28;20100;-74
2023/01/30 10:23:12;;;;;;;14.50;1.60;;;;;;;;;;5013826;28;20048;-74
2023/01/30 10:25:55;;;;;;;12.38;1.80;;;;;;;;;;5015694;28;20038;-74
2023/01/30 10:28:45;;;;;;;8.13;2.20;;;;;;;;;;5013530;28;20477;-74
2023/01/30 10:31:15;;;;;;;9.48;1.60;;;;;;;;;;5011059;28;20497;-73
2023/01/30 10:34:24;;;;;;;11.70;2.08;;;;;;;;;;5047635;28;20480;-74
2023/01/30 10:36:58;;;;;;;14.80;1.77;;;;;;;;;;4964460;28;20034;-73
2023/01/30 10:39:29;;;;;;;12.15;1.88;;;;;;;;;;4980127;28;20069;-74
2023/01/30 10:42:08;;;;;;;10.20;2.30;;;;;;;;;;4989229;28;20476;-73
2023/01/30 10:44:33;;;;;;;13.93;1.95;;;;;;;;;;5018647;28;20056;-77
2023/01/30 10:47:50;;;;;;;10.95;1.77;;;;;;;;;;5012545;28;20038;-74
2023/01/30 10:50:20;;;;;;;9.95;1.60;;;;;;;;;;5002524;28;20048;-74
2023/01/30 10:53:32;;;;;;;10.23;1.67;;;;;;;;;;5016665;28;20045;-73
2023/01/30 10:56:17;;;;;;;7.50;1.50;;;;;;;;;;5010879;28;20053;-73
2023/01/30 10:58:50;;;;;;;12.20;1.83;;;;;;;;;;5021168;28;20492;-73
2023/01/30 11:01:22;;;;;;;7.47;1.30;;;;;;;;;;5020838;28;20136;-73
2023/01/30 11:03:52;;;;;;;7.43;1.30;;;;;;;;;;5015120;28;20485;-73
2023/01/30 11:06:22;;;;;;;6.88;1.40;;;;;;;;;;5022909;28;20066;-74
2023/01/30 11:08:48;;;;;;;11.57;1.77;;;;;;;;;;5025903;28;20060;-74
2023/01/30 11:11:46;;;;;;;10.73;1.40;;;;;;;;;;5021812;28;20386;-73
2023/01/30 11:14:11;;;;;;;7.28;1.67;;;;;;;;;;5022289;28;20052;-74
2023/01/30 11:16:47;;;;;;;5.28;1.40;;;;;;;;;;5021711;28;20972;-73
2023/01/30 11:19:15;;;;;;;10.70;1.52;;;;;;;;;;5021800;28;20045;-74
2023/01/30 11:21:43;;;;;;;7.93;1.60;;;;;;;;;;5013414;28;20047;-74
2023/01/30 11:24:18;;;;;;;8.85;1.55;;;;;;;;;;5022821;28;20452;-76
2023/01/30 11:26:44;;;;;;;13.98;2.22;;;;;;;;;;5004749;28;21759;-78
2023/01/30 11:29:29;;;;;;;8.00;1.30;;;;;;;;;;5004619;28;20041;-74
2023/01/30 11:31:55;;;;;;;12.25;1.55;;;;;;;;;;4994783;28;20064;-74
2023/01/30 11:34:24;;;;;;;9.35;1.50;;;;;;;;;;5010375;28;20037;-74
2023/01/30 11:36:50;;;;;;;5.50;1.23;;;;;;;;;;4995635;28;20034;-75
2023/01/30 11:39:17;;;;;;;8.20;1.48;;;;;;;;;;5016230;28;20481;-74
2023/01/30 11:41:57;;;;;;;10.38;1.73;;;;;;;;;;5023376;28;20060;-74
2023/01/30 11:44:36;;;;;;;16.33;1.65;;;;;;;;;;5008471;28;20042;-74
2023/01/30 11:47:06;;;;;;;10.30;1.45;;;;;;;;;;5017811;28;20061;-74
2023/01/30 11:49:36;;;;;;;10.02;1.58;;;;;;;;;;5017836;28;20131;-75
2023/01/30 11:52:03;;;;;;;5.55;1.65;;;;;;;;;;5025522;28;20912;-74
2023/01/30 11:54:37;;;;;;;11.07;1.58;;;;;;;;;;5015977;28;20046;-74
2023/01/30 11:57:05;;;;;;;12.77;1.92;;;;;;;;;;5019642;28;20034;-74
2023/01/30 11:59:46;;;;;;;7.07;1.90;;;;;;;;;;5016341;28;20066;-75
2023/01/30 12:02:31;;;;;;;8.15;1.77;;;;;;;;;;5018883;28;20125;-75
2023/01/30 12:05:07;;;;;;;9.00;1.38;;;;;;;;;;5013649;28;20052;-74
2023/01/30 12:07:35;;;;;;;9.50;1.65;;;;;;;;;;5021936;28;20048;-74
2023/01/30 12:10:00;;;;;;;9.07;1.67;;;;;;;;;;5033696;28;20026;-74
2023/01/30 12:12:27;;;;;;;10.18;1.73;;;;;;;;;;5013298;28;20041;-74
2023/01/30 12:15:02;;;;;;;8.90;1.40;;;;;;;;;;5013688;28;20041;-74
2023/01/30 12:17:33;;;;;;;8.57;1.30;;;;;;;;;;5016214;28;20055;-73
2023/01/30 12:20:04;;;;;;;9.82;1.58;;;;;;;;;;5025758;28;20041;-74
2023/01/30 12:23:14;;;;;;;5.47;1.52;;;;;;;;;;5025100;28;20513;-74
2023/01/30 12:25:59;;;;;;;5.07;1.10;;;;;;;;;;5018836;28;20041;-75
2023/01/30 12:28:40;;;;;;;7.85;1.20;;;;;;;;;;5012399;28;20045;-74
2023/01/30 12:31:36;;;;;;;10.10;1.27;;;;;;;;;;5023731;28;20049;-74
2023/01/30 12:34:02;;;;;;;7.82;1.38;;;;;;;;;;5008531;28;20871;-74
2023/01/30 12:36:41;;;;;;;11.82;1.52;;;;;;;;;;5022022;28;20041;-75
2023/01/30 12:39:45;;;;;;;11.38;1.60;;;;;;;;;;5027261;28;20052;-74
2023/01/30 12:42:48;;;;;;;7.50;1.60;;;;;;;;;;5020040;28;20086;-74
2023/01/30 12:45:28;;;;;;;10.20;1.02;;;;;;;;;;5017954;28;20291;-74
2023/01/30 12:48:15;;;;;;;7.47;1.10;;;;;;;;;;5019947;28;20045;-74
2023/01/30 12:50:58;;;;;;;9.80;1.75;;;;;;;;;;5018159;28;20478;-74
2023/01/30 12:53:45;;;;;;;5.55;1.15;;;;;;;;;;4999292;28;20061;-77
2023/01/30 12:56:16;;;;;;;13.68;1.42;;;;;;;;;;5017587;28;20068;-74
2023/01/30 12:58:52;;;;;;;12.18;2.13;;;;;;;;;;5017374;28;20444;-74
2023/01/30 13:01:31;;;;;;;8.13;1.20;;;;;;;;;;5015564;28;20121;-75
2023/01/30 13:04:18;;;;;;;11.50;1.33;;;;;;;;;;5016894;28;20042;-74
2023/01/30 13:06:46;;;;;;;10.60;1.58;;;;;;;;;;5017600;28;20075;-74
2023/01/30 13:09:33;;;;;;;8.13;1.40;;;;;;;;;;5019531;28;20040;-74
2023/01/30 13:12:07;;;;;;;10.20;1.50;;;;;;;;;;5028916;28;20038;-74
2023/01/30 13:14:47;;;;;;;6.53;1.52;;;;;;;;;;5008090;28;20473;-74
2023/01/30 13:17:16;;;;;;;17.23;3.05;;;;;;;;;;5017244;28;20049;-75
2023/01/30 13:20:23;;;;;;;10.40;1.58;;;;;;;;;;5017814;28;20045;-75
2023/01/30 13:23:03;;;;;;;8.43;2.88;;;;;;;;;;5016323;28;20529;-74
2023/01/30 13:25:35;;;;;;;6.43;1.55;;;;;;;;;;5018035;28;20397;-75
2023/01/30 13:28:07;;;;;;;10.60;1.85;;;;;;;;;;5019841;28;20546;-75
2023/01/30 13:30:33;;;;;;;8.20;1.40;;;;;;;;;;5020064;28;20084;-74
2023/01/30 13:33:23;;;;;;;3.35;0.90;;;;;;;;;;5020889;28;20034;-74
2023/01/30 13:36:14;;;;;;;9.43;1.48;;;;;;;;;;5003858;28;20115;-75
2023/01/30 13:38:49;;;;;;;10.93;1.40;;;;;;;;;;5000401;28;20185;-74
2023/01/30 13:41:15;;;;;;;8.70;1.40;;;;;;;;;;5008684;28;20033;-75
2023/01/30 13:43:47;;;;;;;10.35;1.48;;;;;;;;;;5019572;28;20065;-75
2023/01/30 13:46:19;;;;;;;12.02;1.80;;;;;;;;;;5009505;28;20040;-75
2023/01/30 13:48:55;;;;;;;14.65;2.28;;;;;;;;;;5018781;28;20091;-74
2023/01/30 13:51:32;;;;;;;10.73;1.70;;;;;;;;;;5024083;28;20493;-74
2023/01/30 13:54:16;;;;;;;11.73;1.60;;;;;;;;;;5029701;28;20051;-74
2023/01/30 13:57:19;;;;;;;7.88;1.58;;;;;;;;;;5021395;28;20034;-74
2023/01/30 14:00:14;;;;;;;6.18;0.93;;;;;;;;;;5011745;28;20050;-74
2023/01/30 14:03:02;;;;;;;10.68;1.67;;;;;;;;;;5024779;28;20060;-75
2023/01/30 14:05:50;;;;;;;8.80;1.70;;;;;;;;;;5027176;28;20056;-74
2023/01/30 14:08:21;;;;;;;6.85;1.20;;;;;;;;;;5012904;28;20022;-75
2023/01/30 14:10:47;;;;;;;7.55;1.90;;;;;;;;;;5021816;28;20477;-74
2023/01/30 14:13:14;;;;;;;11.45;1.02;;;;;;;;;;5012432;28;20033;-77
2023/01/30 14:15:52;;;;;;;8.45;1.17;;;;;;;;;;5012561;28;20037;-74
2023/01/30 14:18:27;;;;;;;7.35;1.83;;;;;;;;;;5017713;28;20461;-75
2023/01/30 14:21:11;;;;;;;8.00;1.45;;;;;;;;;;5014863;28;20029;-74
2023/01/30 14:23:36;;;;;;;;;;;;;;;;;;5014357;28;20038;-74
2023/01/30 14:26:02;;;;;;;11.10;1.50;;;;;;;;;;5018180;28;19921;-74
2023/01/30 14:28:27;;;;;;;9.13;1.50;;;;;;;;;;5012117;28;20121;-74
2023/01/30 14:30:54;;;;;;;10.20;1.40;;;;;;;;;;5015286;28;20049;-74
2023/01/30 14:33:19;;;;;;;12.85;1.88;;;;;;;;;;5012878;28;20079;-74
2023/01/30 14:35:46;;;;;;;10.60;1.17;;;;;;;;;;5014239;28;20034;-74
2023/01/30 14:38:16;;;;;;;11.90;1.30;;;;;;;;;;5018335;28;20048;-74
2023/01/30 14:41:22;;;;;;;7.53;1.60;;;;;;;;;;5039613;28;20543;-75
2023/01/30 14:43:49;;;;;;;9.35;1.55;;;;;;;;;;5012425;28;20045;-74
2023/01/30 14:46:18;;;;;;;7.53;1.98;;;;;;;;;;5018381;28;20029;-76
2023/01/30 14:48:53;;;;;;;8.57;1.70;;;;;;;;;;5023193;28;20049;-74
2023/01/30 14:51:30;;;;;;;10.25;1.80;;;;;;;;;;5019048;28;20069;-74
2023/01/30 14:54:05;;;;;;;8.85;1.40;;;;;;;;;;5019432;28;20034;-74
2023/01/30 14:56:37;;;;;;;15.02;1.85;;;;;;;;;;5026719;28;20041;-74
2023/01/30 14:59:06;;;;;;;10.05;2.00;;;;;;;;;;5031356;28;20033;-74
2023/01/30 15:01:52;;;;;;;10.10;1.70;;;;;;;;;;5030644;28;20037;-74
2023/01/30 15:04:17;;;;;;;7.20;1.40;;;;;;;;;;5019937;28;20397;-76
2023/01/30 15:06:45;;;;;;;6.90;1.35;;;;;;;;;;5019402;28;20145;-74
2023/01/30 15:09:16;;;;;;;11.93;1.50;;;;;;;;;;5014668;28;20041;-74